Time;durP1;ratioP1;P1;durP2;ratioP2;P2;SDS_P1;SDS_P2;PMS_P1;PMS_P2;Temp;Humidity;BMP_temperature;BMP_pressure;BME280_temperature;BME280_humidity;BME280_pressure;Samples;Min_cycle;Max_cycle;Signal;HPM_P1;HPM_P2
2021/03/03 00:01:59;;;;;;;21.67;11.13;;;2.60;84.60;;;;;;4980763;28;20038;-62
2021/03/03 00:04:26;;;;;;;21.23;10.85;;;2.50;84.50;;;;;;4975933;28;20053;-63
2021/03/03 00:06:51;;;;;;;22.95;10.93;;;2.60;84.10;;;;;;4980813;28;20046;-63
2021/03/03 00:09:17;;;;;;;18.60;10.57;;;2.60;84.10;;;;;;5005015;28;20041;-64
2021/03/03 00:11:43;;;;;;;20.20;9.45;;;2.60;83.70;;;;;;4977452;28;20590;-64
2021/03/03 00:14:09;;;;;;;21.75;10.95;;;2.50;83.40;;;;;;4980803;28;20410;-64
2021/03/03 00:16:34;;;;;;;20.77;9.73;;;2.50;83.50;;;;;;4980778;28;20421;-64
2021/03/03 00:19:00;;;;;;;22.52;11.27;;;2.50;83.90;;;;;;4980811;28;20035;-63
2021/03/03 00:21:25;;;;;;;18.75;10.48;;;2.60;84.70;;;;;;4981259;28;20069;-63
2021/03/03 00:23:51;;;;;;;20.60;10.48;;;2.60;85.00;;;;;;4980544;28;20043;-63
2021/03/03 00:26:17;;;;;;;21.65;11.48;;;2.60;84.80;;;;;;4980311;28;20030;-63
2021/03/03 00:28:43;;;;;;;20.83;10.30;;;2.60;84.80;;;;;;4980431;28;20050;-64
2021/03/03 00:31:08;;;;;;;20.77;11.50;;;2.60;84.70;;;;;;4980043;28;20073;-63
2021/03/03 00:33:34;;;;;;;19.17;10.63;;;2.60;84.70;;;;;;4980975;28;20498;-63
2021/03/03 00:36:00;;;;;;;20.88;11.70;;;2.60;84.40;;;;;;4980381;28;20057;-63
2021/03/03 00:38:25;;;;;;;21.00;10.85;;;2.50;84.40;;;;;;4980820;28;20833;-63
2021/03/03 00:40:52;;;;;;;28.88;13.95;;;2.40;84.20;;;;;;4979786;28;20545;-64
2021/03/03 00:43:18;;;;;;;24.90;13.88;;;2.50;83.40;;;;;;4980500;28;20038;-62
2021/03/03 00:45:43;;;;;;;44.38;22.05;;;2.40;83.10;;;;;;4980502;28;20038;-63
2021/03/03 00:48:09;;;;;;;35.88;18.63;;;2.30;83.40;;;;;;4980404;28;20611;-63
2021/03/03 00:50:35;;;;;;;43.00;19.92;;;2.30;82.50;;;;;;4980365;28;20478;-63
2021/03/03 00:53:01;;;;;;;40.70;20.27;;;2.30;82.80;;;;;;4979599;28;20046;-63
2021/03/03 00:55:28;;;;;;;45.15;23.40;;;2.20;82.50;;;;;;4978621;28;20045;-63
2021/03/03 00:57:56;;;;;;;45.72;21.63;;;2.10;82.90;;;;;;4978469;28;20038;-63
2021/03/03 01:00:23;;;;;;;38.85;19.17;;;2.10;83.80;;;;;;4978300;28;20034;-63
2021/03/03 01:02:53;;;;;;;32.03;17.25;;;2.00;84.50;;;;;;4978031;28;20112;-63
2021/03/03 01:05:20;;;;;;;41.20;18.08;;;2.00;85.50;;;;;;4974402;28;20038;-63
2021/03/03 01:07:48;;;;;;;37.58;17.63;;;2.00;85.40;;;;;;4978904;28;20765;-63
2021/03/03 01:10:15;;;;;;;44.90;19.60;;;2.00;85.70;;;;;;4978619;28;20049;-63
2021/03/03 01:12:42;;;;;;;36.67;17.35;;;2.00;86.00;;;;;;4978871;28;20130;-63
2021/03/03 01:15:10;;;;;;;36.08;17.65;;;2.10;85.60;;;;;;4978315;28;20491;-63
2021/03/03 01:17:36;;;;;;;29.67;13.98;;;2.10;85.40;;;;;;4979967;28;20112;-63
2021/03/03 01:20:04;;;;;;;40.33;18.02;;;2.10;85.90;;;;;;4980330;28;20035;-63
2021/03/03 01:22:29;;;;;;;43.95;18.98;;;2.00;85.80;;;;;;4979167;28;20088;-63
2021/03/03 01:24:55;;;;;;;43.25;18.13;;;2.00;85.80;;;;;;4979752;28;20060;-63
2021/03/03 01:27:20;;;;;;;33.67;15.27;;;2.00;85.90;;;;;;4979343;28;20593;-63
2021/03/03 01:29:46;;;;;;;26.95;13.38;;;2.10;86.50;;;;;;4977274;28;20038;-63
2021/03/03 01:32:12;;;;;;;25.40;12.02;;;2.10;87.20;;;;;;4971277;28;20076;-64
2021/03/03 01:34:38;;;;;;;29.30;12.45;;;2.00;87.10;;;;;;4978673;28;20064;-63
2021/03/03 01:37:04;;;;;;;26.75;12.43;;;2.10;86.70;;;;;;4978512;28;20042;-63
2021/03/03 01:39:29;;;;;;;25.20;12.02;;;2.10;86.20;;;;;;4978401;28;20042;-63
2021/03/03 01:41:55;;;;;;;22.15;11.38;;;2.10;85.80;;;;;;4978326;28;20049;-63
2021/03/03 01:44:21;;;;;;;24.45;12.73;;;2.00;85.20;;;;;;4977878;28;20106;-63
2021/03/03 01:46:47;;;;;;;23.60;12.13;;;2.00;84.80;;;;;;4978719;28;20076;-63
2021/03/03 01:49:13;;;;;;;25.77;12.25;;;2.00;84.20;;;;;;4978642;28;20157;-63
2021/03/03 01:51:39;;;;;;;26.88;11.45;;;1.90;84.10;;;;;;4978653;28;20053;-63
2021/03/03 01:54:05;;;;;;;24.17;11.50;;;1.90;84.00;;;;;;4978860;28;20042;-63
2021/03/03 01:56:31;;;;;;;23.85;12.13;;;1.90;83.90;;;;;;4978272;28;20037;-63
2021/03/03 01:58:56;;;;;;;22.52;12.20;;;1.90;83.70;;;;;;4978189;28;20423;-63
2021/03/03 02:01:22;;;;;;;28.77;13.75;;;1.90;83.40;;;;;;4978428;28;20128;-64
2021/03/03 02:03:48;;;;;;;27.85;12.68;;;2.00;84.10;;;;;;4978548;28;20034;-63
2021/03/03 02:06:25;;;;;;;31.70;13.65;;;2.00;84.20;;;;;;4977088;28;20065;-63
2021/03/03 02:09:02;;;;;;;26.92;13.20;;;2.00;83.80;;;;;;4977973;28;20097;-63
2021/03/03 02:11:47;;;;;;;25.33;12.38;;;2.00;84.10;;;;;;4975186;28;20045;-63
2021/03/03 02:14:19;;;;;;;20.52;11.05;;;1.90;84.60;;;;;;4974887;28;20030;-63
2021/03/03 02:16:46;;;;;;;21.98;11.23;;;1.90;85.00;;;;;;5005603;28;20554;-63
2021/03/03 02:19:18;;;;;;;20.52;10.13;;;1.90;85.20;;;;;;4977442;28;20046;-63
2021/03/03 02:21:51;;;;;;;20.90;11.13;;;1.90;85.00;;;;;;4977688;28;20038;-63
2021/03/03 02:24:24;;;;;;;19.13;9.93;;;1.90;84.20;;;;;;4975438;28;20062;-63
2021/03/03 02:26:53;;;;;;;18.75;9.73;;;1.80;83.10;;;;;;4971613;28;20038;-63
2021/03/03 02:29:25;;;;;;;20.48;10.55;;;1.80;83.40;;;;;;4973592;28;20069;-63
2021/03/03 02:31:51;;;;;;;20.58;10.98;;;1.80;83.80;;;;;;4977042;28;20034;-63
2021/03/03 02:34:19;;;;;;;19.77;10.45;;;1.80;84.10;;;;;;4975846;28;20057;-63
2021/03/03 02:36:47;;;;;;;22.48;11.63;;;1.90;84.80;;;;;;4974270;28;20184;-63
2021/03/03 02:39:15;;;;;;;25.42;11.55;;;1.90;85.70;;;;;;4976931;28;20030;-63
2021/03/03 02:41:42;;;;;;;21.88;11.13;;;1.80;84.80;;;;;;4976369;28;20046;-63
2021/03/03 02:44:08;;;;;;;19.48;10.02;;;1.80;83.90;;;;;;4976925;28;20049;-63
2021/03/03 02:46:35;;;;;;;17.73;9.80;;;1.80;83.80;;;;;;4976915;28;20038;-63
2021/03/03 02:49:02;;;;;;;26.38;11.60;;;1.80;84.20;;;;;;4975623;28;20050;-63
2021/03/03 02:51:28;;;;;;;29.02;13.90;;;1.80;84.60;;;;;;4971245;28;20034;-63
2021/03/03 02:53:54;;;;;;;25.73;12.05;;;1.90;85.50;;;;;;4976237;28;20041;-63
2021/03/03 02:56:19;;;;;;;22.10;12.30;;;1.90;86.20;;;;;;4976279;28;20054;-63
2021/03/03 02:58:45;;;;;;;26.27;12.82;;;1.90;86.00;;;;;;4972858;28;20822;-63
2021/03/03 03:01:14;;;;;;;26.35;11.82;;;2.00;85.60;;;;;;4976652;28;20112;-63
2021/03/03 03:03:51;;;;;;;19.73;10.20;;;2.00;85.20;;;;;;4973396;28;20038;-63
2021/03/03 03:06:19;;;;;;;23.02;11.38;;;2.00;85.30;;;;;;4973132;28;20412;-63
2021/03/03 03:08:47;;;;;;;23.50;10.05;;;2.00;84.90;;;;;;4976570;28;20034;-63
2021/03/03 03:11:19;;;;;;;23.05;11.00;;;2.00;84.20;;;;;;4972080;28;20394;-63
2021/03/03 03:13:47;;;;;;;20.88;10.20;;;2.00;84.30;;;;;;4977590;28;20150;-63
2021/03/03 03:16:15;;;;;;;21.30;10.77;;;1.90;83.80;;;;;;4974053;28;20117;-62
2021/03/03 03:18:46;;;;;;;19.63;9.43;;;1.90;83.30;;;;;;4977608;28;20689;-62
2021/03/03 03:21:14;;;;;;;16.23;9.75;;;1.80;82.60;;;;;;4976854;28;20042;-63
2021/03/03 03:23:41;;;;;;;21.50;9.73;;;1.80;82.50;;;;;;4977569;28;20624;-63
2021/03/03 03:26:08;;;;;;;19.95;9.38;;;1.80;82.90;;;;;;4976933;28;20407;-62
2021/03/03 03:28:40;;;;;;;21.52;10.35;;;1.80;83.90;;;;;;4976977;28;20529;-63
2021/03/03 03:31:09;;;;;;;22.48;10.57;;;1.80;84.90;;;;;;4976973;28;20022;-63
2021/03/03 03:33:36;;;;;;;22.15;10.20;;;1.80;85.70;;;;;;4972477;28;20037;-62
2021/03/03 03:36:03;;;;;;;19.77;10.38;;;1.90;86.70;;;;;;4976871;28;20033;-63
2021/03/03 03:38:30;;;;;;;21.83;10.15;;;1.90;87.50;;;;;;4977439;28;20758;-63
2021/03/03 03:41:04;;;;;;;22.60;9.77;;;2.00;87.90;;;;;;4976237;28;20026;-63
2021/03/03 03:43:32;;;;;;;19.92;10.20;;;2.10;88.00;;;;;;4971351;28;20037;-63
2021/03/03 03:46:00;;;;;;;17.60;9.02;;;2.10;88.00;;;;;;4977238;28;20570;-63
2021/03/03 03:48:26;;;;;;;25.52;12.50;;;2.10;87.30;;;;;;4975549;28;20070;-63
2021/03/03 03:50:52;;;;;;;20.77;11.27;;;2.10;86.60;;;;;;4976574;28;20054;-63
2021/03/03 03:53:18;;;;;;;23.15;10.95;;;2.00;83.30;;;;;;4977312;28;20049;-63
2021/03/03 03:55:44;;;;;;;23.10;10.60;;;2.00;81.80;;;;;;4976288;28;20399;-63
2021/03/03 03:58:10;;;;;;;25.52;13.20;;;1.80;82.30;;;;;;4976679;28;20038;-63
2021/03/03 04:00:36;;;;;;;26.77;13.18;;;1.80;82.80;;;;;;4977107;28;20137;-63
2021/03/03 04:03:02;;;;;;;26.20;11.82;;;1.70;82.40;;;;;;4975893;28;20050;-63
2021/03/03 04:05:28;;;;;;;27.33;12.88;;;1.60;82.50;;;;;;4973451;28;20038;-64
2021/03/03 04:07:54;;;;;;;24.25;11.68;;;1.50;82.60;;;;;;4976496;28;20092;-63
2021/03/03 04:10:27;;;;;;;25.40;12.25;;;1.50;82.60;;;;;;4976660;28;20080;-63
2021/03/03 04:12:53;;;;;;;32.17;16.38;;;1.40;83.10;;;;;;4975903;28;20034;-63
2021/03/03 04:15:20;;;;;;;27.40;14.18;;;1.40;83.40;;;;;;4978032;28;20073;-63
2021/03/03 04:17:46;;;;;;;26.25;13.65;;;1.40;83.10;;;;;;4979641;28;20034;-63
2021/03/03 04:20:12;;;;;;;28.45;13.68;;;1.40;83.10;;;;;;4977548;28;20077;-63
2021/03/03 04:22:38;;;;;;;28.38;13.48;;;1.40;82.70;;;;;;5005146;28;20034;-63
2021/03/03 04:25:10;;;;;;;25.00;12.60;;;1.30;83.20;;;;;;4978674;28;20069;-63
2021/03/03 04:27:36;;;;;;;24.88;13.23;;;1.30;84.10;;;;;;4980280;28;20112;-63
2021/03/03 04:30:07;;;;;;;24.95;12.32;;;1.30;83.70;;;;;;4980153;28;20046;-63
2021/03/03 04:32:32;;;;;;;28.98;13.98;;;1.30;84.20;;;;;;4977019;28;20803;-63
2021/03/03 04:34:58;;;;;;;25.80;12.88;;;1.40;86.40;;;;;;4979460;28;20034;-63
2021/03/03 04:37:24;;;;;;;30.92;13.30;;;1.50;89.30;;;;;;4979947;28;20030;-63
2021/03/03 04:39:50;;;;;;;28.30;13.20;;;1.60;88.90;;;;;;4980428;28;20066;-63
2021/03/03 04:42:15;;;;;;;27.70;13.75;;;1.60;88.50;;;;;;4979825;28;20038;-63
2021/03/03 04:44:41;;;;;;;35.17;14.55;;;1.60;87.40;;;;;;4979921;28;20034;-63
2021/03/03 04:47:07;;;;;;;28.58;12.82;;;1.70;86.70;;;;;;4974618;28;20519;-63
2021/03/03 04:49:32;;;;;;;25.27;12.48;;;1.70;87.50;;;;;;4968956;28;20048;-63
2021/03/03 04:51:58;;;;;;;26.02;12.27;;;1.70;88.00;;;;;;4979340;28;20034;-63
2021/03/03 04:54:24;;;;;;;26.55;11.55;;;1.70;88.20;;;;;;4974499;28;20034;-63
2021/03/03 04:56:49;;;;;;;30.88;14.75;;;1.70;88.60;;;;;;4978048;28;20038;-63
2021/03/03 04:59:15;;;;;;;28.42;15.85;;;1.80;87.80;;;;;;4978794;28;20035;-63
2021/03/03 05:01:41;;;;;;;27.65;13.38;;;1.80;84.70;;;;;;4979546;28;20085;-63
2021/03/03 05:04:07;;;;;;;28.83;14.60;;;1.70;84.30;;;;;;4978905;28;20425;-63
2021/03/03 05:06:33;;;;;;;25.95;13.27;;;1.60;84.50;;;;;;4979470;28;20137;-63
2021/03/03 05:08:58;;;;;;;26.73;12.77;;;1.60;84.50;;;;;;4978238;28;20030;-63
2021/03/03 05:11:24;;;;;;;27.98;13.65;;;1.50;84.90;;;;;;4978581;28;20041;-63
2021/03/03 05:13:50;;;;;;;29.20;13.73;;;1.60;85.40;;;;;;4979062;28;20038;-63
2021/03/03 05:16:15;;;;;;;26.27;12.85;;;1.60;86.50;;;;;;4978682;28;20030;-63
2021/03/03 05:18:41;;;;;;;24.60;12.50;;;1.60;88.10;;;;;;4978254;28;20705;-63
2021/03/03 05:21:07;;;;;;;30.88;13.98;;;1.70;88.20;;;;;;4972581;28;20034;-63
2021/03/03 05:23:34;;;;;;;28.75;11.73;;;1.70;87.20;;;;;;4973809;28;20026;-63
2021/03/03 05:26:02;;;;;;;38.47;13.50;;;1.70;85.60;;;;;;4978223;28;20124;-63
2021/03/03 05:28:28;;;;;;;27.27;11.30;;;1.60;84.20;;;;;;4978905;28;20643;-63
2021/03/03 05:30:54;;;;;;;26.92;10.52;;;1.50;83.30;;;;;;4978676;28;20026;-63
2021/03/03 05:33:27;;;;;;;23.00;10.70;;;1.40;83.40;;;;;;4978314;28;20165;-63
2021/03/03 05:35:54;;;;;;;21.58;11.02;;;1.40;83.50;;;;;;4978465;28;20026;-63
2021/03/03 05:38:20;;;;;;;26.55;11.95;;;1.30;83.60;;;;;;4977861;28;20053;-63
2021/03/03 05:40:47;;;;;;;27.67;10.95;;;1.30;83.80;;;;;;4978632;28;20030;-63
2021/03/03 05:43:14;;;;;;;32.15;12.02;;;1.20;83.50;;;;;;4975821;28;20041;-63
2021/03/03 05:45:43;;;;;;;21.58;10.68;;;1.30;83.30;;;;;;4978189;28;20038;-63
2021/03/03 05:48:21;;;;;;;26.98;12.27;;;1.30;83.80;;;;;;4977719;28;20061;-62
2021/03/03 05:50:52;;;;;;;26.88;11.80;;;1.30;84.80;;;;;;4977111;28;20610;-63
2021/03/03 05:53:18;;;;;;;27.95;13.02;;;1.30;85.60;;;;;;4977973;28;20122;-63
2021/03/03 05:55:44;;;;;;;32.47;12.63;;;1.40;86.00;;;;;;4977586;28;20034;-63
2021/03/03 05:58:10;;;;;;;26.25;13.50;;;1.40;86.30;;;;;;4977741;28;20034;-63
2021/03/03 06:00:37;;;;;;;25.90;12.50;;;1.40;86.60;;;;;;4977721;28;20908;-63
2021/03/03 06:03:04;;;;;;;23.65;12.30;;;1.50;87.00;;;;;;4977059;28;20077;-63
2021/03/03 06:05:31;;;;;;;27.02;13.38;;;1.50;87.20;;;;;;4977156;28;20053;-63
2021/03/03 06:07:57;;;;;;;23.00;11.52;;;1.60;87.50;;;;;;4977517;28;20469;-63
2021/03/03 06:10:23;;;;;;;25.95;12.38;;;1.60;87.70;;;;;;4976712;28;20042;-63
2021/03/03 06:12:49;;;;;;;27.80;13.77;;;1.70;88.10;;;;;;4977647;28;20039;-63
2021/03/03 06:15:16;;;;;;;27.08;13.07;;;1.80;88.60;;;;;;4978237;28;20041;-63
2021/03/03 06:17:43;;;;;;;32.38;13.35;;;1.80;88.50;;;;;;4977576;28;20045;-63
2021/03/03 06:20:09;;;;;;;27.15;12.65;;;1.90;87.20;;;;;;4977602;28;20080;-63
2021/03/03 06:22:35;;;;;;;29.48;13.90;;;1.90;85.30;;;;;;4977400;28;20057;-63
2021/03/03 06:25:01;;;;;;;29.23;13.10;;;1.90;85.20;;;;;;4977199;28;20471;-63
2021/03/03 06:27:37;;;;;;;32.08;15.95;;;1.90;85.70;;;;;;4973428;28;20042;-63
2021/03/03 06:30:03;;;;;;;31.85;14.45;;;1.90;86.80;;;;;;4976610;28;20042;-63
2021/03/03 06:32:29;;;;;;;28.13;14.00;;;1.90;87.80;;;;;;4976875;28;20462;-63
2021/03/03 06:34:54;;;;;;;32.13;15.57;;;1.90;87.70;;;;;;4976823;28;20038;-63
2021/03/03 06:37:20;;;;;;;29.48;14.43;;;2.00;87.80;;;;;;4975661;28;20034;-63
2021/03/03 06:40:06;;;;;;;33.30;15.65;;;2.10;87.50;;;;;;4976336;28;20060;-63
2021/03/03 06:42:31;;;;;;;32.65;15.20;;;2.10;88.30;;;;;;4977202;28;20689;-63
2021/03/03 06:44:57;;;;;;;33.10;15.73;;;2.10;88.90;;;;;;4977103;28;20050;-64
2021/03/03 06:47:24;;;;;;;31.80;14.90;;;2.20;88.40;;;;;;4977209;28;20554;-63
2021/03/03 06:49:52;;;;;;;27.58;13.02;;;2.30;87.20;;;;;;4976871;28;20061;-63
2021/03/03 06:52:37;;;;;;;26.95;13.40;;;2.30;86.60;;;;;;4975731;28;20117;-64
2021/03/03 06:55:03;;;;;;;26.23;12.45;;;2.40;85.80;;;;;;4974640;28;20414;-63
2021/03/03 06:57:29;;;;;;;25.75;13.00;;;2.30;85.00;;;;;;4976390;28;20442;-64
2021/03/03 06:59:56;;;;;;;31.65;14.02;;;2.40;85.30;;;;;;4977295;28;20038;-64
2021/03/03 07:02:29;;;;;;;27.92;13.00;;;2.40;85.60;;;;;;4972977;28;20538;-63
2021/03/03 07:04:58;;;;;;;25.60;12.77;;;2.50;86.40;;;;;;4960157;28;20084;-63
2021/03/03 07:07:25;;;;;;;27.55;13.50;;;2.60;86.40;;;;;;4976814;28;20119;-64
2021/03/03 07:09:59;;;;;;;25.75;13.02;;;2.70;86.40;;;;;;4975114;28;20045;-64
2021/03/03 07:12:30;;;;;;;27.27;11.57;;;2.70;86.20;;;;;;4974617;28;20034;-64
2021/03/03 07:14:57;;;;;;;29.02;13.95;;;2.80;86.20;;;;;;4977282;28;20089;-65
2021/03/03 07:17:24;;;;;;;28.45;14.05;;;2.90;86.10;;;;;;4976204;28;20625;-64
2021/03/03 07:19:59;;;;;;;33.97;15.18;;;3.00;86.00;;;;;;4976351;28;20054;-64
2021/03/03 07:22:26;;;;;;;28.45;13.93;;;3.00;85.70;;;;;;4976400;28;20099;-63
2021/03/03 07:25:05;;;;;;;26.45;13.75;;;3.10;85.60;;;;;;4975674;28;20503;-63
2021/03/03 07:27:32;;;;;;;25.75;13.48;;;3.20;85.30;;;;;;4977235;28;20042;-64
2021/03/03 07:30:06;;;;;;;29.17;14.15;;;3.20;85.30;;;;;;4977214;28;20034;-64
2021/03/03 07:32:32;;;;;;;27.35;13.90;;;3.30;85.40;;;;;;4975031;28;20616;-66
2021/03/03 07:34:58;;;;;;;28.60;13.18;;;3.40;85.80;;;;;;4975567;28;20037;-64
2021/03/03 07:37:32;;;;;;;27.02;12.18;;;3.50;85.70;;;;;;4976877;28;20030;-64
2021/03/03 07:40:05;;;;;;;29.65;13.50;;;3.60;85.40;;;;;;4976341;28;20031;-64
2021/03/03 07:42:32;;;;;;;28.83;14.30;;;3.70;85.30;;;;;;4976511;28;20041;-64
2021/03/03 07:45:00;;;;;;;29.73;15.88;;;3.80;85.20;;;;;;4975024;28;20042;-63
2021/03/03 07:47:29;;;;;;;34.53;17.35;;;3.90;85.20;;;;;;4975634;28;20065;-63
2021/03/03 07:50:00;;;;;;;37.08;16.02;;;4.00;85.40;;;;;;4977623;28;20116;-64
2021/03/03 07:52:27;;;;;;;29.65;15.63;;;4.30;85.00;;;;;;4980837;28;20157;-64
2021/03/03 07:54:52;;;;;;;32.47;15.75;;;4.70;84.60;;;;;;4981146;28;20137;-64
2021/03/03 07:57:19;;;;;;;32.45;15.70;;;5.40;81.00;;;;;;4980583;28;20838;-63
2021/03/03 07:59:45;;;;;;;32.90;16.58;;;6.10;79.20;;;;;;4980139;28;20034;-64
2021/03/03 08:02:11;;;;;;;30.38;15.30;;;7.00;76.70;;;;;;4980086;28;20057;-64
2021/03/03 08:04:38;;;;;;;27.10;14.60;;;7.70;73.10;;;;;;4980469;28;20058;-63
2021/03/03 08:07:27;;;;;;;28.30;13.90;;;8.40;70.10;;;;;;4962480;28;20045;-64
2021/03/03 08:10:13;;;;;;;25.75;14.35;;;8.90;68.10;;;;;;4977239;28;20053;-63
2021/03/03 08:12:59;;;;;;;28.40;15.23;;;9.10;65.60;;;;;;4975739;28;20053;-64
2021/03/03 08:15:34;;;;;;;26.13;14.85;;;9.10;66.10;;;;;;4978680;28;20072;-64
2021/03/03 08:18:16;;;;;;;26.27;14.13;;;9.10;67.20;;;;;;4979966;28;20556;-63
2021/03/03 08:20:52;;;;;;;27.80;14.73;;;8.90;67.60;;;;;;4975097;28;20070;-64
2021/03/03 08:23:33;;;;;;;30.65;14.93;;;8.80;68.10;;;;;;4978139;28;20557;-64
2021/03/03 08:25:59;;;;;;;26.25;14.85;;;8.70;68.60;;;;;;4979120;28;20066;-64
2021/03/03 08:28:39;;;;;;;28.27;16.30;;;8.70;68.90;;;;;;4979915;28;20442;-64
2021/03/03 08:31:08;;;;;;;25.05;13.95;;;8.60;68.50;;;;;;4978286;28;20054;-64
2021/03/03 08:33:39;;;;;;;28.38;15.27;;;8.50;69.80;;;;;;4974691;28;20042;-64
2021/03/03 08:36:06;;;;;;;32.53;17.10;;;8.40;70.60;;;;;;4978854;28;20041;-64
2021/03/03 08:38:32;;;;;;;31.15;16.15;;;8.40;70.90;;;;;;4977657;28;20038;-64
2021/03/03 08:41:16;;;;;;;31.23;15.88;;;8.50;71.20;;;;;;4979353;28;20062;-64
2021/03/03 08:43:58;;;;;;;28.00;15.60;;;8.70;70.60;;;;;;4974596;28;20649;-64
2021/03/03 08:46:24;;;;;;;30.50;17.17;;;8.80;70.40;;;;;;4977794;28;20031;-64
2021/03/03 08:48:52;;;;;;;28.38;16.05;;;8.80;69.80;;;;;;4978868;28;20037;-64
2021/03/03 08:51:23;;;;;;;41.75;19.75;;;8.80;70.00;;;;;;4977299;28;20038;-64
2021/03/03 08:53:54;;;;;;;34.45;17.23;;;8.80;69.60;;;;;;4978045;28;20764;-64
2021/03/03 08:56:32;;;;;;;33.75;18.08;;;8.70;70.70;;;;;;4979188;28;20675;-64
2021/03/03 08:58:59;;;;;;;33.83;18.23;;;8.90;70.90;;;;;;4978590;28;20065;-66
2021/03/03 09:01:49;;;;;;;31.17;17.23;;;9.30;69.30;;;;;;4975916;28;20349;-64
2021/03/03 09:04:15;;;;;;;33.10;18.33;;;9.70;68.30;;;;;;4975493;28;20038;-64
2021/03/03 09:06:47;;;;;;;30.10;16.58;;;9.90;67.20;;;;;;4973861;28;20395;-64
2021/03/03 09:09:12;;;;;;;34.65;19.90;;;10.00;67.40;;;;;;4977872;28;20042;-59
2021/03/03 09:11:38;;;;;;;37.55;20.42;;;9.90;68.30;;;;;;4976626;28;20042;-59
2021/03/03 09:14:06;;;;;;;38.13;19.80;;;10.10;66.80;;;;;;4978902;28;20084;-59
2021/03/03 09:16:31;;;;;;;32.45;18.98;;;10.30;66.70;;;;;;4977820;28;20300;-59
2021/03/03 09:19:06;;;;;;;31.95;18.80;;;10.50;65.60;;;;;;4978623;28;20030;-59
2021/03/03 09:21:32;;;;;;;33.03;18.75;;;10.90;66.10;;;;;;4977987;28;20091;-59
2021/03/03 09:24:11;;;;;;;34.55;19.30;;;11.30;64.80;;;;;;4976604;28;20042;-59
2021/03/03 09:26:38;;;;;;;34.30;19.58;;;11.70;62.70;;;;;;4977749;28;20034;-59
2021/03/03 09:29:04;;;;;;;38.08;19.25;;;12.00;61.80;;;;;;4978289;28;20474;-60
2021/03/03 09:31:35;;;;;;;35.10;20.30;;;12.10;62.40;;;;;;4978066;28;20042;-60
2021/03/03 09:34:02;;;;;;;33.95;20.33;;;12.40;61.60;;;;;;4978845;28;20839;-60
2021/03/03 09:36:28;;;;;;;38.08;21.77;;;12.70;60.80;;;;;;4976595;28;20220;-60
2021/03/03 09:38:58;;;;;;;36.20;20.67;;;12.80;59.70;;;;;;4977758;28;20064;-59
2021/03/03 09:41:26;;;;;;;37.20;21.77;;;12.60;60.10;;;;;;4978344;28;20030;-59
2021/03/03 09:44:20;;;;;;;42.70;23.00;;;12.30;61.90;;;;;;4977994;28;20249;-58
2021/03/03 09:46:55;;;;;;;44.13;22.92;;;12.00;63.80;;;;;;4960769;28;20049;-60
2021/03/03 09:49:29;;;;;;;40.38;22.52;;;12.00;64.80;;;;;;4976533;28;20038;-60
2021/03/03 09:51:57;;;;;;;37.38;20.25;;;12.30;62.80;;;;;;4977951;28;20030;-60
2021/03/03 09:54:29;;;;;;;41.88;21.63;;;12.90;60.20;;;;;;4977319;28;20030;-60
2021/03/03 09:56:55;;;;;;;43.50;23.83;;;13.50;59.10;;;;;;4977017;28;20026;-59
2021/03/03 09:59:21;;;;;;;41.30;23.38;;;14.10;57.50;;;;;;4977358;28;20038;-60
2021/03/03 10:01:48;;;;;;;39.67;23.20;;;14.90;55.10;;;;;;4976602;28;20038;-59
2021/03/03 10:04:14;;;;;;;44.40;24.02;;;14.80;54.50;;;;;;4975580;28;20940;-59
2021/03/03 10:06:41;;;;;;;41.97;23.08;;;14.80;55.00;;;;;;4976761;28;20038;-59
2021/03/03 10:09:06;;;;;;;39.53;23.27;;;14.90;55.10;;;;;;4977247;28;20042;-60
2021/03/03 10:11:32;;;;;;;43.65;24.25;;;15.00;55.00;;;;;;4977100;28;20109;-60
2021/03/03 10:14:05;;;;;;;40.80;23.25;;;14.90;55.70;;;;;;4977132;28;20526;-59
2021/03/03 10:16:32;;;;;;;42.00;24.80;;;15.10;55.00;;;;;;4977283;28;20042;-59
2021/03/03 10:19:05;;;;;;;42.35;25.15;;;15.20;54.80;;;;;;4977299;28;20034;-59
2021/03/03 10:21:32;;;;;;;38.40;22.88;;;14.80;55.10;;;;;;4977007;28;20038;-59
2021/03/03 10:23:58;;;;;;;43.20;24.60;;;14.50;57.80;;;;;;4976448;28;20053;-59
2021/03/03 10:26:40;;;;;;;41.50;24.55;;;14.00;57.60;;;;;;4975846;28;20403;-59
2021/03/03 10:29:06;;;;;;;44.95;24.80;;;13.70;59.20;;;;;;4976240;28;20049;-59
2021/03/03 10:31:32;;;;;;;52.13;27.27;;;13.40;61.20;;;;;;4976467;28;20045;-59
2021/03/03 10:34:09;;;;;;;42.42;24.63;;;13.20;61.00;;;;;;4976745;28;20038;-59
2021/03/03 10:36:40;;;;;;;42.58;24.92;;;12.90;61.90;;;;;;4971805;28;20041;-59
2021/03/03 10:39:08;;;;;;;43.95;23.60;;;12.60;62.80;;;;;;4976528;28;20033;-59
2021/03/03 10:41:34;;;;;;;42.88;23.98;;;12.20;64.50;;;;;;4976568;28;20704;-59
2021/03/03 10:44:01;;;;;;;41.58;24.20;;;12.10;65.80;;;;;;4976895;28;20112;-60
2021/03/03 10:46:27;;;;;;;40.80;23.58;;;12.00;66.80;;;;;;4975549;28;20097;-59
2021/03/03 10:48:55;;;;;;;43.47;24.15;;;12.00;67.40;;;;;;4976412;28;20040;-59
2021/03/03 10:51:34;;;;;;;46.35;23.55;;;12.00;67.00;;;;;;4975730;28;20038;-59
2021/03/03 10:53:59;;;;;;;44.35;23.13;;;12.10;66.30;;;;;;4976275;28;20147;-59
2021/03/03 10:56:37;;;;;;;44.80;23.42;;;12.20;65.80;;;;;;4975879;28;20485;-59
2021/03/03 10:59:21;;;;;;;43.70;23.05;;;12.20;65.30;;;;;;4975343;28;20065;-59
2021/03/03 11:02:01;;;;;;;39.13;21.75;;;12.20;66.10;;;;;;4973352;28;20488;-59
2021/03/03 11:04:41;;;;;;;40.20;23.40;;;12.20;65.60;;;;;;4975608;28;20026;-59
2021/03/03 11:07:08;;;;;;;37.25;22.27;;;12.30;65.90;;;;;;4976246;28;20034;-59
2021/03/03 11:09:34;;;;;;;38.05;21.73;;;12.30;65.40;;;;;;4977113;28;20057;-59
2021/03/03 11:12:01;;;;;;;45.65;22.88;;;12.40;65.60;;;;;;4976857;28;20033;-59
2021/03/03 11:14:28;;;;;;;38.88;21.38;;;12.50;64.90;;;;;;4976444;28;20042;-59
2021/03/03 11:16:55;;;;;;;37.75;21.23;;;12.60;63.90;;;;;;4976779;28;20597;-59
2021/03/03 11:19:22;;;;;;;43.33;21.90;;;12.80;63.50;;;;;;4976982;28;20041;-59
2021/03/03 11:21:48;;;;;;;35.65;19.35;;;12.70;64.00;;;;;;4977477;28;20625;-59
2021/03/03 11:24:14;;;;;;;38.72;22.48;;;12.80;64.80;;;;;;4976784;28;20075;-59
2021/03/03 11:26:42;;;;;;;39.33;22.20;;;12.90;64.70;;;;;;4976931;28;20042;-59
2021/03/03 11:29:08;;;;;;;42.90;23.67;;;13.00;63.80;;;;;;4976340;28;20120;-59
2021/03/03 11:31:35;;;;;;;44.05;24.17;;;13.00;63.30;;;;;;4976301;28;20442;-59
2021/03/03 11:34:01;;;;;;;45.17;24.52;;;13.00;63.70;;;;;;4976432;28;20026;-59
2021/03/03 11:36:27;;;;;;;34.03;21.27;;;13.00;64.20;;;;;;4975254;28;20038;-59
2021/03/03 11:38:53;;;;;;;36.33;21.10;;;13.00;64.20;;;;;;4975440;28;20089;-59
2021/03/03 11:41:19;;;;;;;37.90;21.00;;;13.00;63.80;;;;;;4975503;28;20065;-59
2021/03/03 11:43:44;;;;;;;40.38;22.08;;;13.10;63.80;;;;;;4975666;28;20141;-59
2021/03/03 11:46:10;;;;;;;34.83;21.00;;;13.10;63.10;;;;;;4975358;28;20085;-59
2021/03/03 11:48:36;;;;;;;34.63;20.33;;;13.20;63.50;;;;;;4975315;28;20038;-59
2021/03/03 11:51:02;;;;;;;32.45;17.73;;;13.10;63.60;;;;;;4975729;28;20105;-59
2021/03/03 11:53:28;;;;;;;31.63;17.55;;;13.10;61.80;;;;;;4976143;28;21039;-59
2021/03/03 11:55:54;;;;;;;29.85;16.27;;;13.20;61.40;;;;;;4976720;28;20038;-59
2021/03/03 11:58:20;;;;;;;29.60;15.57;;;13.30;61.30;;;;;;4976298;28;20065;-59
2021/03/03 12:00:45;;;;;;;30.52;16.85;;;13.30;60.10;;;;;;4977014;28;20038;-59
2021/03/03 12:03:11;;;;;;;37.35;19.92;;;13.40;60.80;;;;;;4976725;28;20748;-59
2021/03/03 12:05:38;;;;;;;32.85;17.75;;;13.60;60.20;;;;;;4976732;28;20041;-60
2021/03/03 12:08:06;;;;;;;33.22;18.85;;;13.70;60.30;;;;;;4977265;28;20052;-60
2021/03/03 12:10:33;;;;;;;28.48;15.85;;;13.80;59.20;;;;;;4976495;28;20741;-59
2021/03/03 12:12:59;;;;;;;26.40;15.90;;;13.80;58.90;;;;;;4976635;28;20046;-60
2021/03/03 12:15:25;;;;;;;27.75;15.48;;;13.80;59.80;;;;;;4976300;28;20030;-59
2021/03/03 12:17:50;;;;;;;29.95;16.83;;;13.90;58.60;;;;;;4976924;28;20045;-59
2021/03/03 12:20:17;;;;;;;28.70;16.23;;;13.90;59.10;;;;;;4975933;28;20030;-59
2021/03/03 12:22:42;;;;;;;22.98;14.07;;;14.00;59.50;;;;;;4976418;28;20126;-59
2021/03/03 12:25:08;;;;;;;24.48;13.70;;;14.00;58.90;;;;;;4976305;28;20034;-59
2021/03/03 12:27:34;;;;;;;24.98;14.05;;;14.00;58.70;;;;;;4976238;28;20042;-61
2021/03/03 12:30:00;;;;;;;26.70;12.43;;;14.00;58.40;;;;;;4976084;28;20045;-59
2021/03/03 12:32:25;;;;;;;22.73;11.55;;;14.00;58.10;;;;;;4975675;28;20034;-59
2021/03/03 12:34:51;;;;;;;22.90;12.75;;;14.00;58.00;;;;;;4973614;28;20041;-59
2021/03/03 12:37:17;;;;;;;23.40;11.50;;;14.00;57.90;;;;;;4976378;28;20129;-60
2021/03/03 12:39:42;;;;;;;20.20;12.38;;;14.00;57.30;;;;;;4979587;28;20133;-59